sensor_id;sensor_type;location;lat;lon;timestamp;P1;durP1;ratioP1;P2;durP2;ratioP2
34030;SDS011;20319;28.466;-16.274;2022-07-29T00:02:21;2.22;;;0.80;;
34030;SDS011;20319;28.466;-16.274;2022-07-29T00:04:46;2.40;;;1.00;;
34030;SDS011;20319;28.466;-16.274;2022-07-29T00:07:12;4.15;;;1.30;;
34030;SDS011;20319;28.466;-16.274;2022-07-29T00:09:37;3.17;;;1.05;;
34030;SDS011;20319;28.466;-16.274;2022-07-29T00:12:03;2.97;;;1.05;;
34030;SDS011;20319;28.466;-16.274;2022-07-29T00:14:29;3.42;;;1.52;;
34030;SDS011;20319;28.466;-16.274;2022-07-29T00:16:55;5.15;;;0.90;;
34030;SDS011;20319;28.466;-16.274;2022-07-29T00:19:20;2.30;;;1.00;;
34030;SDS011;20319;28.466;-16.274;2022-07-29T00:21:46;3.72;;;1.10;;
34030;SDS011;20319;28.466;-16.274;2022-07-29T00:24:11;3.75;;;1.27;;
34030;SDS011;20319;28.466;-16.274;2022-07-29T00:26:37;3.78;;;1.00;;
34030;SDS011;20319;28.466;-16.274;2022-07-29T00:29:03;3.47;;;1.23;;
34030;SDS011;20319;28.466;-16.274;2022-07-29T00:31:29;5.15;;;1.08;;
34030;SDS011;20319;28.466;-16.274;2022-07-29T00:33:55;4.47;;;1.55;;
34030;SDS011;20319;28.466;-16.274;2022-07-29T00:36:21;5.28;;;1.30;;
34030;SDS011;20319;28.466;-16.274;2022-07-29T00:38:47;3.28;;;1.10;;
34030;SDS011;20319;28.466;-16.274;2022-07-29T00:41:14;3.70;;;1.13;;
34030;SDS011;20319;28.466;-16.274;2022-07-29T00:43:40;2.72;;;1.15;;
34030;SDS011;20319;28.466;-16.274;2022-07-29T00:46:06;4.15;;;1.50;;
34030;SDS011;20319;28.466;-16.274;2022-07-29T00:48:32;3.33;;;1.23;;
34030;SDS011;20319;28.466;-16.274;2022-07-29T00:51:05;4.18;;;1.40;;
34030;SDS011;20319;28.466;-16.274;2022-07-29T00:53:38;2.85;;;1.17;;
34030;SDS011;20319;28.466;-16.274;2022-07-29T00:56:03;3.05;;;1.23;;
34030;SDS011;20319;28.466;-16.274;2022-07-29T00:58:29;3.47;;;1.30;;
34030;SDS011;20319;28.466;-16.274;2022-07-29T01:00:54;3.38;;;1.50;;
34030;SDS011;20319;28.466;-16.274;2022-07-29T01:03:20;2.45;;;1.20;;
34030;SDS011;20319;28.466;-16.274;2022-07-29T01:05:46;3.55;;;1.10;;
34030;SDS011;20319;28.466;-16.274;2022-07-29T01:08:12;2.55;;;1.25;;
34030;SDS011;20319;28.466;-16.274;2022-07-29T01:10:40;4.70;;;1.20;;
34030;SDS011;20319;28.466;-16.274;2022-07-29T01:13:09;3.88;;;1.27;;
34030;SDS011;20319;28.466;-16.274;2022-07-29T01:15:42;3.00;;;1.20;;
34030;SDS011;20319;28.466;-16.274;2022-07-29T01:18:11;5.00;;;1.25;;
34030;SDS011;20319;28.466;-16.274;2022-07-29T01:31:33;4.95;;;1.35;;
34030;SDS011;20319;28.466;-16.274;2022-07-29T01:34:04;2.67;;;0.93;;
34030;SDS011;20319;28.466;-16.274;2022-07-29T01:36:37;3.58;;;1.80;;
34030;SDS011;20319;28.466;-16.274;2022-07-29T01:39:10;3.45;;;1.80;;
34030;SDS011;20319;28.466;-16.274;2022-07-29T01:41:49;17.75;;;15.85;;
34030;SDS011;20319;28.466;-16.274;2022-07-29T01:44:20;14.02;;;11.65;;
34030;SDS011;20319;28.466;-16.274;2022-07-29T01:46:52;16.08;;;14.30;;
34030;SDS011;20319;28.466;-16.274;2022-07-29T01:49:22;5.30;;;3.85;;
34030;SDS011;20319;28.466;-16.274;2022-07-29T01:52:08;7.63;;;5.93;;
34030;SDS011;20319;28.466;-16.274;2022-07-29T01:54:47;11.57;;;7.93;;
34030;SDS011;20319;28.466;-16.274;2022-07-29T01:57:17;5.30;;;4.00;;
34030;SDS011;20319;28.466;-16.274;2022-07-29T01:59:46;5.18;;;3.53;;
34030;SDS011;20319;28.466;-16.274;2022-07-29T02:02:13;14.45;;;12.38;;
34030;SDS011;20319;28.466;-16.274;2022-07-29T02:04:41;9.20;;;7.07;;
34030;SDS011;20319;28.466;-16.274;2022-07-29T02:07:10;9.80;;;5.30;;
34030;SDS011;20319;28.466;-16.274;2022-07-29T02:09:40;4.57;;;3.88;;
34030;SDS011;20319;28.466;-16.274;2022-07-29T02:12:07;2.95;;;2.15;;
34030;SDS011;20319;28.466;-16.274;2022-07-29T02:14:40;6.88;;;5.20;;
34030;SDS011;20319;28.466;-16.274;2022-07-29T02:17:11;6.03;;;3.17;;
34030;SDS011;20319;28.466;-16.274;2022-07-29T02:19:38;6.00;;;3.05;;
34030;SDS011;20319;28.466;-16.274;2022-07-29T02:22:06;7.43;;;4.03;;
34030;SDS011;20319;28.466;-16.274;2022-07-29T02:24:33;3.20;;;2.53;;
34030;SDS011;20319;28.466;-16.274;2022-07-29T02:27:00;2.78;;;1.45;;
34030;SDS011;20319;28.466;-16.274;2022-07-29T02:29:28;1.88;;;1.42;;
34030;SDS011;20319;28.466;-16.274;2022-07-29T02:31:57;5.13;;;3.50;;
34030;SDS011;20319;28.466;-16.274;2022-07-29T02:34:25;3.42;;;3.13;;
34030;SDS011;20319;28.466;-16.274;2022-07-29T02:36:53;3.75;;;1.67;;
34030;SDS011;20319;28.466;-16.274;2022-07-29T02:39:20;5.63;;;4.20;;
34030;SDS011;20319;28.466;-16.274;2022-07-29T02:41:55;2.30;;;1.40;;
34030;SDS011;20319;28.466;-16.274;2022-07-29T02:44:24;3.22;;;2.90;;
34030;SDS011;20319;28.466;-16.274;2022-07-29T02:46:59;1.45;;;0.75;;
34030;SDS011;20319;28.466;-16.274;2022-07-29T02:49:37;2.42;;;1.25;;
34030;SDS011;20319;28.466;-16.274;2022-07-29T02:54:42;2.95;;;1.10;;
34030;SDS011;20319;28.466;-16.274;2022-07-29T02:59:57;3.75;;;1.20;;
34030;SDS011;20319;28.466;-16.274;2022-07-29T03:02:33;2.65;;;1.98;;
34030;SDS011;20319;28.466;-16.274;2022-07-29T03:05:03;1.67;;;1.38;;
34030;SDS011;20319;28.466;-16.274;2022-07-29T03:07:31;2.67;;;1.30;;
34030;SDS011;20319;28.466;-16.274;2022-07-29T03:09:59;2.25;;;1.40;;
34030;SDS011;20319;28.466;-16.274;2022-07-29T03:12:26;5.10;;;1.33;;
34030;SDS011;20319;28.466;-16.274;2022-07-29T03:14:52;3.42;;;1.23;;
34030;SDS011;20319;28.466;-16.274;2022-07-29T03:17:19;2.50;;;1.10;;
34030;SDS011;20319;28.466;-16.274;2022-07-29T03:19:46;2.58;;;0.90;;
34030;SDS011;20319;28.466;-16.274;2022-07-29T03:22:12;4.38;;;1.27;;
34030;SDS011;20319;28.466;-16.274;2022-07-29T03:24:39;2.22;;;1.27;;
34030;SDS011;20319;28.466;-16.274;2022-07-29T03:27:05;1.88;;;1.10;;
34030;SDS011;20319;28.466;-16.274;2022-07-29T03:29:30;1.58;;;1.05;;
34030;SDS011;20319;28.466;-16.274;2022-07-29T03:31:57;3.17;;;1.30;;
34030;SDS011;20319;28.466;-16.274;2022-07-29T03:34:22;1.63;;;1.05;;
34030;SDS011;20319;28.466;-16.274;2022-07-29T03:36:48;1.73;;;0.80;;
34030;SDS011;20319;28.466;-16.274;2022-07-29T03:39:15;0.75;;;0.73;;
34030;SDS011;20319;28.466;-16.274;2022-07-29T03:41:47;1.23;;;0.80;;
34030;SDS011;20319;28.466;-16.274;2022-07-29T03:44:15;0.80;;;0.77;;
34030;SDS011;20319;28.466;-16.274;2022-07-29T03:46:43;1.00;;;0.60;;
34030;SDS011;20319;28.466;-16.274;2022-07-29T03:49:09;1.70;;;0.77;;
34030;SDS011;20319;28.466;-16.274;2022-07-29T03:51:37;1.10;;;0.75;;
34030;SDS011;20319;28.466;-16.274;2022-07-29T03:54:04;1.15;;;0.65;;
34030;SDS011;20319;28.466;-16.274;2022-07-29T03:56:31;0.93;;;0.60;;
34030;SDS011;20319;28.466;-16.274;2022-07-29T03:58:59;0.80;;;0.60;;
34030;SDS011;20319;28.466;-16.274;2022-07-29T04:01:27;1.75;;;0.40;;
34030;SDS011;20319;28.466;-16.274;2022-07-29T04:03:54;0.50;;;0.40;;
34030;SDS011;20319;28.466;-16.274;2022-07-29T04:06:21;1.60;;;0.60;;
34030;SDS011;20319;28.466;-16.274;2022-07-29T04:08:46;0.77;;;0.50;;
34030;SDS011;20319;28.466;-16.274;2022-07-29T04:11:12;1.15;;;0.50;;
34030;SDS011;20319;28.466;-16.274;2022-07-29T04:13:38;1.30;;;0.70;;
34030;SDS011;20319;28.466;-16.274;2022-07-29T04:16:04;1.38;;;0.50;;
34030;SDS011;20319;28.466;-16.274;2022-07-29T04:18:29;1.30;;;0.55;;
34030;SDS011;20319;28.466;-16.274;2022-07-29T04:20:55;1.17;;;0.52;;
34030;SDS011;20319;28.466;-16.274;2022-07-29T04:23:21;0.30;;;0.30;;
34030;SDS011;20319;28.466;-16.274;2022-07-29T04:25:46;1.20;;;0.60;;
34030;SDS011;20319;28.466;-16.274;2022-07-29T04:28:12;1.02;;;0.60;;
34030;SDS011;20319;28.466;-16.274;2022-07-29T04:30:38;1.40;;;0.90;;
34030;SDS011;20319;28.466;-16.274;2022-07-29T04:33:04;1.63;;;1.10;;
34030;SDS011;20319;28.466;-16.274;2022-07-29T04:35:33;2.53;;;1.00;;
34030;SDS011;20319;28.466;-16.274;2022-07-29T04:38:00;2.22;;;0.80;;
34030;SDS011;20319;28.466;-16.274;2022-07-29T04:40:26;2.00;;;0.85;;
34030;SDS011;20319;28.466;-16.274;2022-07-29T04:42:52;2.38;;;0.80;;
34030;SDS011;20319;28.466;-16.274;2022-07-29T04:45:18;3.35;;;0.90;;
34030;SDS011;20319;28.466;-16.274;2022-07-29T04:47:43;1.45;;;0.70;;
34030;SDS011;20319;28.466;-16.274;2022-07-29T04:50:09;1.20;;;0.80;;
34030;SDS011;20319;28.466;-16.274;2022-07-29T04:52:35;1.75;;;0.60;;
34030;SDS011;20319;28.466;-16.274;2022-07-29T04:55:02;2.03;;;0.95;;
34030;SDS011;20319;28.466;-16.274;2022-07-29T04:57:29;2.88;;;0.85;;
34030;SDS011;20319;28.466;-16.274;2022-07-29T04:59:54;2.38;;;0.80;;
34030;SDS011;20319;28.466;-16.274;2022-07-29T05:02:20;2.17;;;0.77;;
34030;SDS011;20319;28.466;-16.274;2022-07-29T05:04:46;1.02;;;0.60;;
34030;SDS011;20319;28.466;-16.274;2022-07-29T05:07:12;3.17;;;0.88;;
34030;SDS011;20319;28.466;-16.274;2022-07-29T05:09:39;2.60;;;0.90;;
34030;SDS011;20319;28.466;-16.274;2022-07-29T05:12:05;1.42;;;0.63;;
34030;SDS011;20319;28.466;-16.274;2022-07-29T05:14:31;3.42;;;0.68;;
34030;SDS011;20319;28.466;-16.274;2022-07-29T05:16:58;2.40;;;0.60;;
34030;SDS011;20319;28.466;-16.274;2022-07-29T05:19:24;1.48;;;0.57;;
34030;SDS011;20319;28.466;-16.274;2022-07-29T05:21:49;2.30;;;0.80;;
34030;SDS011;20319;28.466;-16.274;2022-07-29T05:24:15;1.35;;;0.60;;
34030;SDS011;20319;28.466;-16.274;2022-07-29T05:26:41;2.15;;;0.73;;
34030;SDS011;20319;28.466;-16.274;2022-07-29T05:29:07;0.77;;;0.63;;
34030;SDS011;20319;28.466;-16.274;2022-07-29T05:31:32;2.58;;;0.70;;
34030;SDS011;20319;28.466;-16.274;2022-07-29T05:33:58;1.63;;;0.63;;
34030;SDS011;20319;28.466;-16.274;2022-07-29T05:36:24;2.33;;;0.73;;
34030;SDS011;20319;28.466;-16.274;2022-07-29T05:38:50;1.17;;;0.63;;
34030;SDS011;20319;28.466;-16.274;2022-07-29T05:41:17;1.20;;;0.50;;
34030;SDS011;20319;28.466;-16.274;2022-07-29T05:43:43;1.85;;;0.60;;
34030;SDS011;20319;28.466;-16.274;2022-07-29T05:46:08;2.50;;;0.85;;
34030;SDS011;20319;28.466;-16.274;2022-07-29T05:48:34;1.98;;;0.75;;
34030;SDS011;20319;28.466;-16.274;2022-07-29T05:51:00;2.80;;;1.00;;
34030;SDS011;20319;28.466;-16.274;2022-07-29T05:53:26;1.70;;;0.82;;
34030;SDS011;20319;28.466;-16.274;2022-07-29T05:55:52;1.75;;;0.85;;
34030;SDS011;20319;28.466;-16.274;2022-07-29T05:58:17;2.10;;;0.95;;
34030;SDS011;20319;28.466;-16.274;2022-07-29T06:00:43;1.55;;;0.80;;
34030;SDS011;20319;28.466;-16.274;2022-07-29T06:03:09;2.38;;;0.90;;
34030;SDS011;20319;28.466;-16.274;2022-07-29T06:05:35;2.67;;;1.00;;
34030;SDS011;20319;28.466;-16.274;2022-07-29T06:08:00;3.13;;;1.00;;
34030;SDS011;20319;28.466;-16.274;2022-07-29T06:10:26;4.03;;;1.10;;
34030;SDS011;20319;28.466;-16.274;2022-07-29T06:12:52;2.20;;;0.90;;
34030;SDS011;20319;28.466;-16.274;2022-07-29T06:15:17;5.47;;;1.30;;
34030;SDS011;20319;28.466;-16.274;2022-07-29T06:17:43;2.25;;;0.82;;
34030;SDS011;20319;28.466;-16.274;2022-07-29T06:20:09;2.60;;;0.88;;
34030;SDS011;20319;28.466;-16.274;2022-07-29T06:22:35;1.15;;;0.90;;
34030;SDS011;20319;28.466;-16.274;2022-07-29T06:25:07;3.42;;;1.40;;
34030;SDS011;20319;28.466;-16.274;2022-07-29T06:27:33;1.98;;;0.73;;
34030;SDS011;20319;28.466;-16.274;2022-07-29T06:29:59;1.40;;;0.70;;
34030;SDS011;20319;28.466;-16.274;2022-07-29T06:32:24;1.88;;;0.65;;
34030;SDS011;20319;28.466;-16.274;2022-07-29T06:34:50;1.08;;;0.60;;
34030;SDS011;20319;28.466;-16.274;2022-07-29T06:37:16;2.00;;;0.77;;
34030;SDS011;20319;28.466;-16.274;2022-07-29T06:39:42;1.75;;;0.80;;
34030;SDS011;20319;28.466;-16.274;2022-07-29T06:42:08;2.63;;;0.80;;
34030;SDS011;20319;28.466;-16.274;2022-07-29T06:44:33;0.98;;;0.52;;
34030;SDS011;20319;28.466;-16.274;2022-07-29T06:46:59;3.67;;;1.10;;
34030;SDS011;20319;28.466;-16.274;2022-07-29T06:49:25;3.80;;;1.55;;
34030;SDS011;20319;28.466;-16.274;2022-07-29T06:51:52;3.33;;;1.55;;
34030;SDS011;20319;28.466;-16.274;2022-07-29T06:54:27;6.35;;;3.63;;
34030;SDS011;20319;28.466;-16.274;2022-07-29T06:56:52;3.10;;;1.17;;
34030;SDS011;20319;28.466;-16.274;2022-07-29T06:59:18;2.58;;;1.10;;
34030;SDS011;20319;28.466;-16.274;2022-07-29T07:01:43;2.78;;;1.25;;
34030;SDS011;20319;28.466;-16.274;2022-07-29T07:04:09;5.18;;;1.45;;
34030;SDS011;20319;28.466;-16.274;2022-07-29T07:06:36;2.25;;;1.30;;
34030;SDS011;20319;28.466;-16.274;2022-07-29T07:09:02;4.63;;;1.85;;
34030;SDS011;20319;28.466;-16.274;2022-07-29T07:11:28;2.97;;;1.30;;
34030;SDS011;20319;28.466;-16.274;2022-07-29T07:13:53;5.63;;;1.27;;
34030;SDS011;20319;28.466;-16.274;2022-07-29T07:16:19;3.65;;;1.70;;
34030;SDS011;20319;28.466;-16.274;2022-07-29T07:18:45;4.32;;;2.00;;
34030;SDS011;20319;28.466;-16.274;2022-07-29T07:21:10;4.32;;;2.00;;
34030;SDS011;20319;28.466;-16.274;2022-07-29T07:23:36;4.32;;;2.85;;
34030;SDS011;20319;28.466;-16.274;2022-07-29T07:26:02;4.25;;;2.05;;
34030;SDS011;20319;28.466;-16.274;2022-07-29T07:28:28;2.95;;;1.50;;
34030;SDS011;20319;28.466;-16.274;2022-07-29T07:30:54;2.65;;;1.40;;
34030;SDS011;20319;28.466;-16.274;2022-07-29T07:33:20;3.50;;;1.30;;
34030;SDS011;20319;28.466;-16.274;2022-07-29T07:35:46;3.20;;;1.27;;
34030;SDS011;20319;28.466;-16.274;2022-07-29T07:38:12;3.90;;;1.50;;
34030;SDS011;20319;28.466;-16.274;2022-07-29T07:40:38;3.78;;;1.55;;
34030;SDS011;20319;28.466;-16.274;2022-07-29T07:43:04;2.50;;;1.13;;
34030;SDS011;20319;28.466;-16.274;2022-07-29T07:45:29;4.35;;;1.30;;
34030;SDS011;20319;28.466;-16.274;2022-07-29T07:47:57;5.53;;;1.50;;
34030;SDS011;20319;28.466;-16.274;2022-07-29T07:50:23;4.22;;;1.30;;
34030;SDS011;20319;28.466;-16.274;2022-07-29T07:52:49;2.15;;;1.00;;
34030;SDS011;20319;28.466;-16.274;2022-07-29T07:55:17;2.55;;;0.90;;
34030;SDS011;20319;28.466;-16.274;2022-07-29T07:57:43;2.45;;;1.27;;
34030;SDS011;20319;28.466;-16.274;2022-07-29T08:00:09;4.07;;;0.85;;
34030;SDS011;20319;28.466;-16.274;2022-07-29T08:02:35;3.72;;;1.52;;
34030;SDS011;20319;28.466;-16.274;2022-07-29T08:05:01;4.05;;;1.40;;
34030;SDS011;20319;28.466;-16.274;2022-07-29T08:07:26;2.08;;;1.10;;
34030;SDS011;20319;28.466;-16.274;2022-07-29T08:09:52;1.80;;;1.13;;
34030;SDS011;20319;28.466;-16.274;2022-07-29T08:12:17;1.30;;;0.73;;
34030;SDS011;20319;28.466;-16.274;2022-07-29T08:14:43;1.08;;;0.80;;
34030;SDS011;20319;28.466;-16.274;2022-07-29T08:17:09;1.40;;;0.75;;
34030;SDS011;20319;28.466;-16.274;2022-07-29T08:19:34;3.08;;;1.27;;
34030;SDS011;20319;28.466;-16.274;2022-07-29T08:22:01;4.55;;;0.90;;
34030;SDS011;20319;28.466;-16.274;2022-07-29T08:24:27;1.80;;;0.82;;
34030;SDS011;20319;28.466;-16.274;2022-07-29T08:27:08;1.20;;;0.95;;
34030;SDS011;20319;28.466;-16.274;2022-07-29T08:29:35;1.10;;;1.00;;
34030;SDS011;20319;28.466;-16.274;2022-07-29T08:32:01;1.73;;;0.80;;
34030;SDS011;20319;28.466;-16.274;2022-07-29T08:34:26;1.85;;;0.90;;
34030;SDS011;20319;28.466;-16.274;2022-07-29T08:36:53;1.58;;;1.40;;
34030;SDS011;20319;28.466;-16.274;2022-07-29T08:39:20;3.03;;;1.25;;
34030;SDS011;20319;28.466;-16.274;2022-07-29T08:41:46;2.97;;;1.20;;
34030;SDS011;20319;28.466;-16.274;2022-07-29T08:44:12;1.90;;;0.95;;
34030;SDS011;20319;28.466;-16.274;2022-07-29T08:46:41;1.52;;;1.42;;
34030;SDS011;20319;28.466;-16.274;2022-07-29T08:49:07;2.17;;;0.90;;
34030;SDS011;20319;28.466;-16.274;2022-07-29T08:51:33;1.65;;;0.77;;
34030;SDS011;20319;28.466;-16.274;2022-07-29T08:54:00;1.98;;;1.40;;
34030;SDS011;20319;28.466;-16.274;2022-07-29T08:56:26;2.38;;;1.00;;
34030;SDS011;20319;28.466;-16.274;2022-07-29T08:58:53;1.65;;;0.90;;
34030;SDS011;20319;28.466;-16.274;2022-07-29T09:01:24;2.10;;;1.10;;
34030;SDS011;20319;28.466;-16.274;2022-07-29T09:03:54;1.02;;;0.70;;
34030;SDS011;20319;28.466;-16.274;2022-07-29T09:06:21;2.33;;;1.00;;
34030;SDS011;20319;28.466;-16.274;2022-07-29T09:08:51;2.72;;;0.88;;
34030;SDS011;20319;28.466;-16.274;2022-07-29T09:11:17;3.40;;;0.80;;
34030;SDS011;20319;28.466;-16.274;2022-07-29T09:13:43;1.83;;;0.70;;
34030;SDS011;20319;28.466;-16.274;2022-07-29T09:16:08;1.63;;;0.70;;
34030;SDS011;20319;28.466;-16.274;2022-07-29T09:18:36;1.75;;;1.00;;
34030;SDS011;20319;28.466;-16.274;2022-07-29T09:21:03;2.35;;;0.85;;
34030;SDS011;20319;28.466;-16.274;2022-07-29T09:26:40;1.88;;;1.63;;
34030;SDS011;20319;28.466;-16.274;2022-07-29T09:29:11;3.17;;;2.87;;
34030;SDS011;20319;28.466;-16.274;2022-07-29T09:31:48;3.35;;;3.00;;
34030;SDS011;20319;28.466;-16.274;2022-07-29T09:34:16;2.15;;;1.85;;
34030;SDS011;20319;28.466;-16.274;2022-07-29T09:36:47;1.45;;;1.00;;
34030;SDS011;20319;28.466;-16.274;2022-07-29T09:39:15;1.40;;;1.30;;
34030;SDS011;20319;28.466;-16.274;2022-07-29T09:41:52;0.52;;;0.52;;
34030;SDS011;20319;28.466;-16.274;2022-07-29T09:44:19;0.43;;;0.40;;
34030;SDS011;20319;28.466;-16.274;2022-07-29T09:46:56;0.40;;;0.40;;
34030;SDS011;20319;28.466;-16.274;2022-07-29T09:49:23;0.47;;;0.40;;
34030;SDS011;20319;28.466;-16.274;2022-07-29T09:51:59;0.70;;;0.40;;
34030;SDS011;20319;28.466;-16.274;2022-07-29T09:54:26;0.88;;;0.65;;
34030;SDS011;20319;28.466;-16.274;2022-07-29T09:56:53;0.80;;;0.40;;
34030;SDS011;20319;28.466;-16.274;2022-07-29T09:59:20;1.42;;;0.73;;
34030;SDS011;20319;28.466;-16.274;2022-07-29T10:01:49;1.20;;;1.10;;
34030;SDS011;20319;28.466;-16.274;2022-07-29T10:04:15;0.88;;;0.75;;
34030;SDS011;20319;28.466;-16.274;2022-07-29T10:07:00;0.95;;;0.60;;
34030;SDS011;20319;28.466;-16.274;2022-07-29T10:09:27;1.27;;;0.50;;
34030;SDS011;20319;28.466;-16.274;2022-07-29T10:14:29;1.27;;;0.50;;
34030;SDS011;20319;28.466;-16.274;2022-07-29T10:16:56;1.40;;;0.60;;
34030;SDS011;20319;28.466;-16.274;2022-07-29T10:19:22;0.80;;;0.60;;
34030;SDS011;20319;28.466;-16.274;2022-07-29T10:21:48;2.17;;;0.60;;
34030;SDS011;20319;28.466;-16.274;2022-07-29T10:24:14;2.28;;;0.63;;
34030;SDS011;20319;28.466;-16.274;2022-07-29T10:26:40;1.95;;;0.80;;
34030;SDS011;20319;28.466;-16.274;2022-07-29T10:29:05;4.95;;;0.93;;
34030;SDS011;20319;28.466;-16.274;2022-07-29T10:31:36;2.28;;;0.80;;
34030;SDS011;20319;28.466;-16.274;2022-07-29T10:34:14;2.78;;;0.95;;
34030;SDS011;20319;28.466;-16.274;2022-07-29T10:36:57;2.17;;;0.85;;
34030;SDS011;20319;28.466;-16.274;2022-07-29T10:42:25;3.05;;;0.90;;
34030;SDS011;20319;28.466;-16.274;2022-07-29T10:44:52;3.45;;;0.82;;
34030;SDS011;20319;28.466;-16.274;2022-07-29T10:47:23;3.47;;;1.00;;
34030;SDS011;20319;28.466;-16.274;2022-07-29T10:50:08;3.72;;;1.05;;
34030;SDS011;20319;28.466;-16.274;2022-07-29T10:53:07;3.25;;;1.20;;
34030;SDS011;20319;28.466;-16.274;2022-07-29T10:55:43;2.35;;;0.88;;
34030;SDS011;20319;28.466;-16.274;2022-07-29T10:58:20;2.35;;;1.00;;
34030;SDS011;20319;28.466;-16.274;2022-07-29T11:00:52;2.72;;;1.02;;
34030;SDS011;20319;28.466;-16.274;2022-07-29T11:06:08;2.65;;;1.20;;
34030;SDS011;20319;28.466;-16.274;2022-07-29T11:08:34;3.13;;;1.30;;
34030;SDS011;20319;28.466;-16.274;2022-07-29T11:16:11;2.13;;;1.00;;
34030;SDS011;20319;28.466;-16.274;2022-07-29T11:21:48;4.00;;;1.30;;
34030;SDS011;20319;28.466;-16.274;2022-07-29T11:24:19;2.55;;;0.80;;
34030;SDS011;20319;28.466;-16.274;2022-07-29T11:29:32;1.27;;;0.65;;
34030;SDS011;20319;28.466;-16.274;2022-07-29T11:32:13;2.90;;;0.90;;
34030;SDS011;20319;28.466;-16.274;2022-07-29T11:34:41;2.65;;;0.70;;
34030;SDS011;20319;28.466;-16.274;2022-07-29T11:39:37;2.03;;;0.98;;
34030;SDS011;20319;28.466;-16.274;2022-07-29T11:50:03;1.77;;;0.60;;
34030;SDS011;20319;28.466;-16.274;2022-07-29T11:52:41;1.35;;;0.50;;
34030;SDS011;20319;28.466;-16.274;2022-07-29T11:55:19;0.93;;;0.50;;
34030;SDS011;20319;28.466;-16.274;2022-07-29T11:57:54;0.93;;;0.63;;
34030;SDS011;20319;28.466;-16.274;2022-07-29T12:00:22;1.02;;;0.47;;
34030;SDS011;20319;28.466;-16.274;2022-07-29T12:02:50;1.38;;;0.60;;
34030;SDS011;20319;28.466;-16.274;2022-07-29T12:05:16;1.40;;;0.80;;
34030;SDS011;20319;28.466;-16.274;2022-07-29T12:07:44;2.13;;;0.80;;
34030;SDS011;20319;28.466;-16.274;2022-07-29T12:10:10;1.02;;;0.50;;
34030;SDS011;20319;28.466;-16.274;2022-07-29T12:12:36;1.65;;;0.68;;
34030;SDS011;20319;28.466;-16.274;2022-07-29T12:15:13;1.70;;;0.90;;
34030;SDS011;20319;28.466;-16.274;2022-07-29T12:17:40;0.93;;;0.50;;
34030;SDS011;20319;28.466;-16.274;2022-07-29T12:20:07;1.30;;;0.40;;
34030;SDS011;20319;28.466;-16.274;2022-07-29T12:22:40;0.85;;;0.50;;
34030;SDS011;20319;28.466;-16.274;2022-07-29T12:25:12;1.55;;;0.38;;
34030;SDS011;20319;28.466;-16.274;2022-07-29T12:27:46;0.30;;;0.20;;
34030;SDS011;20319;28.466;-16.274;2022-07-29T12:30:13;0.20;;;0.10;;
34030;SDS011;20319;28.466;-16.274;2022-07-29T12:32:42;0.55;;;0.30;;
34030;SDS011;20319;28.466;-16.274;2022-07-29T12:35:11;0.80;;;0.35;;
34030;SDS011;20319;28.466;-16.274;2022-07-29T12:37:43;0.70;;;0.30;;
34030;SDS011;20319;28.466;-16.274;2022-07-29T12:40:10;0.60;;;0.28;;
34030;SDS011;20319;28.466;-16.274;2022-07-29T12:42:38;0.30;;;0.30;;
34030;SDS011;20319;28.466;-16.274;2022-07-29T12:45:05;0.80;;;0.32;;
34030;SDS011;20319;28.466;-16.274;2022-07-29T12:47:31;2.20;;;0.60;;
34030;SDS011;20319;28.466;-16.274;2022-07-29T12:50:13;1.02;;;0.93;;
34030;SDS011;20319;28.466;-16.274;2022-07-29T12:52:42;1.50;;;0.73;;
34030;SDS011;20319;28.466;-16.274;2022-07-29T12:55:37;2.15;;;0.75;;
34030;SDS011;20319;28.466;-16.274;2022-07-29T12:58:05;4.50;;;2.67;;
34030;SDS011;20319;28.466;-16.274;2022-07-29T13:00:32;3.15;;;1.02;;
34030;SDS011;20319;28.466;-16.274;2022-07-29T13:02:58;4.03;;;1.35;;
34030;SDS011;20319;28.466;-16.274;2022-07-29T13:05:41;3.50;;;1.38;;
34030;SDS011;20319;28.466;-16.274;2022-07-29T13:08:13;2.42;;;1.08;;
34030;SDS011;20319;28.466;-16.274;2022-07-29T13:10:41;4.05;;;1.25;;
34030;SDS011;20319;28.466;-16.274;2022-07-29T13:13:11;3.10;;;1.13;;
34030;SDS011;20319;28.466;-16.274;2022-07-29T13:15:41;4.72;;;1.70;;
34030;SDS011;20319;28.466;-16.274;2022-07-29T13:18:28;6.32;;;1.55;;
34030;SDS011;20319;28.466;-16.274;2022-07-29T13:21:10;5.35;;;1.55;;
34030;SDS011;20319;28.466;-16.274;2022-07-29T13:23:37;5.28;;;1.75;;
34030;SDS011;20319;28.466;-16.274;2022-07-29T13:26:06;4.57;;;1.40;;
34030;SDS011;20319;28.466;-16.274;2022-07-29T13:28:36;4.53;;;1.67;;
34030;SDS011;20319;28.466;-16.274;2022-07-29T13:31:02;4.70;;;1.52;;
34030;SDS011;20319;28.466;-16.274;2022-07-29T13:33:29;8.38;;;1.70;;
34030;SDS011;20319;28.466;-16.274;2022-07-29T13:35:55;5.75;;;1.60;;
34030;SDS011;20319;28.466;-16.274;2022-07-29T13:38:21;7.25;;;1.65;;
34030;SDS011;20319;28.466;-16.274;2022-07-29T13:40:46;5.82;;;2.38;;
34030;SDS011;20319;28.466;-16.274;2022-07-29T13:43:12;6.68;;;2.00;;
34030;SDS011;20319;28.466;-16.274;2022-07-29T13:45:38;8.10;;;2.05;;
34030;SDS011;20319;28.466;-16.274;2022-07-29T13:48:04;5.70;;;2.08;;
34030;SDS011;20319;28.466;-16.274;2022-07-29T13:50:31;6.57;;;1.92;;
34030;SDS011;20319;28.466;-16.274;2022-07-29T13:52:57;4.63;;;1.83;;
34030;SDS011;20319;28.466;-16.274;2022-07-29T13:55:23;6.70;;;1.98;;
34030;SDS011;20319;28.466;-16.274;2022-07-29T13:57:48;4.90;;;2.05;;
34030;SDS011;20319;28.466;-16.274;2022-07-29T14:00:14;3.92;;;2.30;;
34030;SDS011;20319;28.466;-16.274;2022-07-29T14:02:41;4.80;;;2.00;;
34030;SDS011;20319;28.466;-16.274;2022-07-29T14:05:07;4.53;;;2.05;;
34030;SDS011;20319;28.466;-16.274;2022-07-29T14:07:35;4.63;;;2.38;;
34030;SDS011;20319;28.466;-16.274;2022-07-29T14:10:02;4.70;;;2.20;;
34030;SDS011;20319;28.466;-16.274;2022-07-29T14:12:28;5.43;;;2.53;;
34030;SDS011;20319;28.466;-16.274;2022-07-29T14:14:53;5.65;;;2.28;;
34030;SDS011;20319;28.466;-16.274;2022-07-29T14:17:19;6.13;;;2.33;;
34030;SDS011;20319;28.466;-16.274;2022-07-29T14:19:45;5.40;;;2.42;;
34030;SDS011;20319;28.466;-16.274;2022-07-29T14:22:10;6.80;;;3.40;;
34030;SDS011;20319;28.466;-16.274;2022-07-29T14:24:36;7.45;;;2.90;;
34030;SDS011;20319;28.466;-16.274;2022-07-29T14:27:02;6.43;;;2.78;;
34030;SDS011;20319;28.466;-16.274;2022-07-29T14:29:28;8.93;;;2.60;;
34030;SDS011;20319;28.466;-16.274;2022-07-29T14:32:02;7.30;;;2.15;;
34030;SDS011;20319;28.466;-16.274;2022-07-29T14:34:29;5.10;;;2.25;;
34030;SDS011;20319;28.466;-16.274;2022-07-29T14:36:54;6.25;;;2.30;;
34030;SDS011;20319;28.466;-16.274;2022-07-29T14:39:23;5.63;;;2.17;;
34030;SDS011;20319;28.466;-16.274;2022-07-29T14:41:49;5.57;;;2.08;;
34030;SDS011;20319;28.466;-16.274;2022-07-29T14:44:16;6.00;;;1.95;;
34030;SDS011;20319;28.466;-16.274;2022-07-29T14:46:43;8.77;;;2.67;;
34030;SDS011;20319;28.466;-16.274;2022-07-29T14:49:08;5.43;;;1.80;;
34030;SDS011;20319;28.466;-16.274;2022-07-29T14:51:34;6.55;;;2.10;;
34030;SDS011;20319;28.466;-16.274;2022-07-29T14:54:07;3.55;;;1.92;;
34030;SDS011;20319;28.466;-16.274;2022-07-29T14:56:32;5.80;;;2.10;;
34030;SDS011;20319;28.466;-16.274;2022-07-29T14:58:58;4.28;;;1.80;;
34030;SDS011;20319;28.466;-16.274;2022-07-29T15:01:24;4.78;;;2.05;;
34030;SDS011;20319;28.466;-16.274;2022-07-29T15:03:49;6.57;;;2.10;;
34030;SDS011;20319;28.466;-16.274;2022-07-29T15:06:15;7.20;;;2.60;;
34030;SDS011;20319;28.466;-16.274;2022-07-29T15:08:41;5.40;;;2.35;;
34030;SDS011;20319;28.466;-16.274;2022-07-29T15:11:07;9.13;;;3.03;;
34030;SDS011;20319;28.466;-16.274;2022-07-29T15:13:33;7.43;;;3.55;;
34030;SDS011;20319;28.466;-16.274;2022-07-29T15:15:59;7.43;;;3.55;;